CheckWX is a tool to help pilots better visualize weather data.  It is not intended as a substitute for an official pre-flight weather briefing.

23:32:39 UTC

KVBT METAR
Bentonville Municipal / Louise M Thaden Field Airport
Bentonville, Arkansas, USA
Current

16 mins ago

KVBT 242317Z AUTO 28010KT 3SM -RA BR OVC004 08/07 A2969 RMK AO2 CIG 004V008 P0001 TSNO
Observed
Feb-24 @ 23:17 UTC
Wind
  • 280° at 10 KTS
Visibility
3 SM
Flight Rules
LIFR
Conditions
Light Rain, Mist
Cloud Levels
  • Overcast at 400' AGL
Temperature
C / 46°F
Dewpoint
C / 45°F
Humidity
93%
Altimeter
29.69" Hg
Pressure
1005.42 hPa
Current Rain
0.01"
Previous

37 mins ago

KVBT 242256Z AUTO 29010KT 1 1/2SM -RA BR OVC006 08/07 A2967 RMK AO2 CIG 004V009 SLP052 P0001 T00780072 TSNO
Observed
Feb-24 @ 22:56 UTC
Wind
  • 290° at 10 KTS
Visibility
1 1/2 SM
Flight Rules
IFR
Conditions
Light Rain, Mist
Cloud Levels
  • Overcast at 600' AGL
Temperature
C / 46°F
Dewpoint
C / 45°F
Humidity
93%
Altimeter
29.67" Hg
Pressure
1004.72 hPa
Current Rain
0.01"
Previous

55 mins ago

KVBT 242238Z AUTO 29012KT 1 3/4SM -RA BR OVC006 08/07 A2966 RMK AO2 P0001 TSNO
Observed
Feb-24 @ 22:38 UTC
Wind
  • 290° at 12 KTS
Visibility
1 3/4 SM
Flight Rules
IFR
Conditions
Light Rain, Mist
Cloud Levels
  • Overcast at 600' AGL
Temperature
C / 46°F
Dewpoint
C / 45°F
Humidity
93%
Altimeter
29.66" Hg
Pressure
1004.42 hPa
Current Rain
0.01"